Time;durP1;ratioP1;P1;durP2;ratioP2;P2;SDS_P1;SDS_P2;PMS_P1;PMS_P2;Temp;Humidity;BMP_temperature;BMP_pressure;BME280_temperature;BME280_humidity;BME280_pressure;Samples;Min_cycle;Max_cycle;Signal;HPM_P1;HPM_P2
2022/10/20 00:07:35;;;;;;;3.55;1.05;;;9.60;99.90;;;;;;20669340;28;20054;-39
2022/10/20 00:17:36;;;;;;;4.95;1.67;;;9.60;99.90;;;;;;20692920;28;20064;-39
2022/10/20 00:27:37;;;;;;;5.57;1.88;;;9.60;99.90;;;;;;20688585;28;20083;-39
2022/10/20 00:37:38;;;;;;;3.45;1.23;;;9.60;99.90;;;;;;20692812;28;21419;-39
2022/10/20 00:47:44;;;;;;;6.15;1.55;;;9.60;99.90;;;;;;20696639;28;20468;-39
2022/10/20 00:57:49;;;;;;;4.15;1.10;;;9.40;99.90;;;;;;20675911;28;20082;-40
2022/10/20 01:07:50;;;;;;;2.25;0.68;;;9.30;99.90;;;;;;20695133;28;20049;-40
2022/10/20 01:18:10;;;;;;;3.30;1.13;;;9.30;99.90;;;;;;20689811;28;20529;-39
2022/10/20 01:28:26;;;;;;;3.83;1.38;;;9.20;99.90;;;;;;20695539;28;20104;-40
2022/10/20 01:38:40;;;;;;;2.55;1.10;;;9.20;99.90;;;;;;20689768;28;20864;-40
2022/10/20 01:48:42;;;;;;;1.95;0.90;;;9.20;99.90;;;;;;20679857;28;20143;-39
2022/10/20 01:59:12;;;;;;;2.30;1.08;;;9.10;99.90;;;;;;20695398;28;20046;-39
2022/10/20 02:09:18;;;;;;;2.42;1.23;;;9.10;99.90;;;;;;20689972;28;20078;-40
2022/10/20 02:19:23;;;;;;;3.95;1.80;;;9.00;99.90;;;;;;20693137;28;20239;-39
2022/10/20 02:29:28;;;;;;;2.72;1.50;;;8.90;99.90;;;;;;20692676;28;20069;-40
2022/10/20 02:39:29;;;;;;;4.63;1.50;;;9.00;99.90;;;;;;20690157;28;20053;-40
2022/10/20 02:49:30;;;;;;;4.70;2.03;;;9.00;99.90;;;;;;20695941;28;20128;-40
2022/10/20 02:59:31;;;;;;;3.65;1.70;;;8.90;99.90;;;;;;20685928;28;20044;-40
2022/10/20 03:09:32;;;;;;;13.45;3.08;;;8.90;99.90;;;;;;20693753;28;20046;-40
2022/10/20 03:19:33;;;;;;;4.15;1.95;;;9.00;99.90;;;;;;20678104;28;20683;-40
2022/10/20 03:29:34;;;;;;;8.85;2.38;;;8.90;99.90;;;;;;20680035;28;20382;-40
2022/10/20 03:39:35;;;;;;;5.57;2.35;;;9.00;99.90;;;;;;20689159;28;20505;-39
2022/10/20 03:49:36;;;;;;;6.13;3.05;;;9.20;99.90;;;;;;20674611;28;20509;-40
2022/10/20 03:59:37;;;;;;;6.85;3.13;;;9.30;99.90;;;;;;20679358;28;20077;-40
2022/10/20 04:09:38;;;;;;;5.50;2.58;;;9.40;99.90;;;;;;20687628;28;20383;-40
2022/10/20 04:19:39;;;;;;;4.60;2.42;;;9.50;99.90;;;;;;20678044;28;20049;-40
2022/10/20 04:29:40;;;;;;;4.25;1.90;;;9.50;99.90;;;;;;20695166;28;20045;-40
2022/10/20 04:39:41;;;;;;;4.97;2.65;;;9.60;99.90;;;;;;20683477;28;20064;-40
2022/10/20 04:49:43;;;;;;;2.75;2.08;;;9.60;99.90;;;;;;20681643;28;20046;-39
2022/10/20 04:59:44;;;;;;;11.45;3.33;;;9.80;99.90;;;;;;20697374;28;20069;-39
2022/10/20 05:09:47;;;;;;;5.38;2.88;;;9.80;99.90;;;;;;20705249;28;20204;-40
2022/10/20 05:19:48;;;;;;;4.55;3.08;;;9.90;99.90;;;;;;20703214;28;20161;-40
2022/10/20 05:29:49;;;;;;;5.30;2.67;;;9.90;99.90;;;;;;20690182;28;20281;-40
2022/10/20 05:39:50;;;;;;;12.13;3.65;;;10.10;99.90;;;;;;20697964;28;20066;-40
2022/10/20 05:49:51;;;;;;;8.38;3.15;;;10.20;99.90;;;;;;20692894;28;20138;-40
2022/10/20 05:59:52;;;;;;;7.13;2.78;;;10.20;99.90;;;;;;20692222;28;20046;-40
2022/10/20 06:09:53;;;;;;;6.05;3.28;;;10.40;99.90;;;;;;20686521;28;20117;-39
2022/10/20 06:19:54;;;;;;;6.35;3.50;;;10.50;99.90;;;;;;20687329;28;20046;-39
2022/10/20 06:29:55;;;;;;;6.75;2.97;;;10.40;99.90;;;;;;20711726;28;20077;-40
2022/10/20 06:39:56;;;;;;;6.15;2.60;;;10.50;99.90;;;;;;20691697;28;20417;-39
2022/10/20 06:49:57;;;;;;;5.32;2.55;;;10.50;99.90;;;;;;20689843;28;20046;-40
2022/10/20 06:59:58;;;;;;;4.35;2.53;;;10.50;99.90;;;;;;20685162;28;20045;-39
2022/10/20 07:09:59;;;;;;;3.90;2.05;;;10.50;99.90;;;;;;20690098;28;20046;-39
2022/10/20 07:20:00;;;;;;;4.65;3.33;;;10.50;99.90;;;;;;20684036;28;20041;-40
2022/10/20 07:30:01;;;;;;;4.13;2.78;;;10.60;99.90;;;;;;20689466;28;20056;-40
2022/10/20 07:40:02;;;;;;;4.80;2.42;;;10.70;99.90;;;;;;20690842;28;20140;-40
2022/10/20 07:50:04;;;;;;;5.35;2.55;;;10.80;99.90;;;;;;20707686;28;20176;-40
2022/10/20 08:00:05;;;;;;;4.22;2.60;;;10.90;99.90;;;;;;20702218;28;20100;-40
2022/10/20 08:10:07;;;;;;;4.32;2.33;;;11.00;99.90;;;;;;20710233;28;20119;-39
2022/10/20 08:20:08;;;;;;;6.03;2.90;;;11.10;99.90;;;;;;20704364;28;20119;-40
2022/10/20 08:30:09;;;;;;;6.05;2.60;;;11.20;99.90;;;;;;20663670;28;20049;-40
2022/10/20 08:40:33;;;;;;;7.55;3.58;;;11.30;99.90;;;;;;20691508;28;20144;-40
2022/10/20 08:50:34;;;;;;;5.43;3.45;;;11.40;99.90;;;;;;20698951;28;20852;-40
2022/10/20 09:00:37;;;;;;;9.25;3.95;;;11.60;99.90;;;;;;20697260;28;20088;-40
2022/10/20 09:10:56;;;;;;;16.60;3.65;;;11.70;99.90;;;;;;20705825;28;20061;-40
2022/10/20 09:21:15;;;;;;;4.43;2.20;;;11.90;99.90;;;;;;20703487;28;20815;-40
2022/10/20 09:31:22;;;;;;;13.10;6.10;;;11.90;99.90;;;;;;20688393;28;20133;-40
2022/10/20 09:41:27;;;;;;;6.80;3.37;;;12.10;99.90;;;;;;20696780;28;20928;-40
2022/10/20 09:51:29;;;;;;;6.50;3.45;;;12.20;99.90;;;;;;20695750;28;20178;-40
2022/10/20 10:01:30;;;;;;;8.45;3.25;;;12.40;99.90;;;;;;20680526;28;20881;-39
2022/10/20 10:11:34;;;;;;;4.97;2.67;;;12.60;99.90;;;;;;20697635;28;20172;-40
2022/10/20 10:21:50;;;;;;;6.82;2.97;;;12.80;99.90;;;;;;20712436;28;20104;-38
2022/10/20 10:32:13;;;;;;;8.48;4.05;;;12.90;99.90;;;;;;20724721;28;20568;-38
2022/10/20 10:42:33;;;;;;;5.35;2.63;;;13.00;99.90;;;;;;20712483;28;20041;-39
2022/10/20 10:52:37;;;;;;;6.05;3.70;;;13.20;99.90;;;;;;20693394;28;20976;-39
2022/10/20 11:03:14;;;;;;;7.82;4.03;;;13.30;99.90;;;;;;20690801;28;20150;-39
2022/10/20 11:13:30;;;;;;;8.05;4.18;;;13.40;99.90;;;;;;20668506;28;20057;-39
2022/10/20 11:23:48;;;;;;;6.68;4.10;;;13.40;99.90;;;;;;20686026;28;20856;-39
2022/10/20 11:34:21;;;;;;;7.70;3.63;;;13.40;99.90;;;;;;20675282;28;20208;-39
2022/10/20 11:44:28;;;;;;;8.55;4.07;;;13.40;99.90;;;;;;20645032;28;20398;-39
2022/10/20 11:54:38;;;;;;;7.23;3.80;;;13.40;99.90;;;;;;20682259;28;20144;-39
2022/10/20 12:05:00;;;;;;;7.10;3.95;;;13.40;99.90;;;;;;20674033;28;20657;-39
2022/10/20 12:15:16;;;;;;;6.15;3.92;;;13.40;99.90;;;;;;20689626;28;20196;-39
2022/10/20 12:25:23;;;;;;;7.68;4.82;;;13.40;99.90;;;;;;20679395;28;21847;-39
2022/10/20 12:35:28;;;;;;;10.77;5.97;;;13.60;99.90;;;;;;20691591;28;20080;-39
2022/10/20 12:45:38;;;;;;;8.25;5.05;;;13.70;99.90;;;;;;20663832;28;21331;-39
2022/10/20 12:55:40;;;;;;;9.70;4.45;;;13.60;99.90;;;;;;20655619;28;20210;-38
2022/10/20 13:05:42;;;;;;;10.43;5.70;;;13.70;99.90;;;;;;20659325;28;20129;-39
2022/10/20 13:15:43;;;;;;;6.63;3.95;;;13.90;99.90;;;;;;20681169;28;20508;-38
2022/10/20 13:25:47;;;;;;;10.68;6.40;;;14.00;99.90;;;;;;20673251;28;20444;-38
2022/10/20 13:35:59;;;;;;;12.80;5.93;;;14.20;99.90;;;;;;20691596;28;20100;-39
2022/10/20 13:46:29;;;;;;;11.60;5.85;;;14.30;99.90;;;;;;20670847;28;20132;-39
2022/10/20 13:56:35;;;;;;;8.45;5.38;;;14.40;99.90;;;;;;20660591;28;20809;-38
2022/10/20 14:06:37;;;;;;;7.50;5.00;;;14.60;99.90;;;;;;20681036;28;20073;-38
2022/10/20 14:16:38;;;;;;;9.85;5.55;;;14.80;99.90;;;;;;20687129;28;20136;-39
2022/10/20 14:26:42;;;;;;;11.45;4.43;;;15.70;99.90;;;;;;20677872;28;20155;-38
2022/10/20 14:36:44;;;;;;;7.38;4.32;;;16.60;99.90;;;;;;20675873;28;20621;-38
2022/10/20 14:46:46;;;;;;;8.30;4.07;;;16.70;99.90;;;;;;20674771;28;20115;-38
2022/10/20 14:56:49;;;;;;;7.35;3.38;;;16.40;99.90;;;;;;20679542;28;20184;-39
2022/10/20 15:07:04;;;;;;;6.00;3.08;;;16.20;99.90;;;;;;20668918;28;20123;-39
2022/10/20 15:17:45;;;;;;;6.55;4.03;;;16.20;99.90;;;;;;20678522;28;20104;-38
2022/10/20 15:27:46;;;;;;;8.25;5.00;;;15.90;99.90;;;;;;20677761;28;20879;-39
2022/10/20 15:37:49;;;;;;;10.07;4.40;;;15.80;99.90;;;;;;20685264;28;20512;-38
2022/10/20 15:47:50;;;;;;;6.90;4.10;;;15.80;99.90;;;;;;20683305;28;20505;-38
2022/10/20 15:57:52;;;;;;;8.60;4.38;;;15.70;99.90;;;;;;20675770;28;20595;-38
2022/10/20 16:07:54;;;;;;;10.32;4.78;;;15.70;99.90;;;;;;20689314;28;20211;-38
2022/10/20 16:17:55;;;;;;;7.35;4.57;;;15.70;99.90;;;;;;20699551;28;20050;-38
2022/10/20 16:27:56;;;;;;;7.63;3.70;;;15.70;99.90;;;;;;20706135;28;20157;-39
2022/10/20 16:37:57;;;;;;;9.70;4.80;;;15.60;99.90;;;;;;20709357;28;20070;-39
2022/10/20 16:47:58;;;;;;;12.48;6.10;;;15.40;99.90;;;;;;20705132;28;20038;-38
2022/10/20 16:57:59;;;;;;;12.60;5.65;;;15.40;99.90;;;;;;20705778;28;20143;-39
2022/10/20 17:08:00;;;;;;;6.65;4.00;;;15.30;99.90;;;;;;20709320;28;20042;-38
2022/10/20 17:18:01;;;;;;;11.60;6.50;;;15.30;99.90;;;;;;20699915;28;20081;-39
2022/10/20 17:28:03;;;;;;;8.80;4.43;;;15.30;99.90;;;;;;20700443;28;20766;-38
2022/10/20 17:38:05;;;;;;;11.02;5.05;;;15.20;99.90;;;;;;20698968;28;20062;-39
2022/10/20 17:48:08;;;;;;;8.70;4.68;;;15.20;99.90;;;;;;20700345;28;20045;-38
2022/10/20 17:58:09;;;;;;;8.45;4.80;;;15.10;99.90;;;;;;20693832;28;20120;-38
2022/10/20 18:08:10;;;;;;;8.88;4.47;;;15.10;99.90;;;;;;20693599;28;20045;-38
2022/10/20 18:18:11;;;;;;;12.80;5.35;;;15.10;99.90;;;;;;20689715;28;20062;-39
2022/10/20 18:28:15;;;;;;;10.13;6.30;;;15.00;99.90;;;;;;20692882;28;20085;-39
2022/10/20 18:38:16;;;;;;;7.78;4.63;;;14.90;99.90;;;;;;20711469;28;20038;-39
2022/10/20 18:48:17;;;;;;;8.80;4.85;;;14.80;99.90;;;;;;20700326;28;21160;-38
2022/10/20 18:58:18;;;;;;;8.90;4.13;;;14.70;99.90;;;;;;20692937;28;20066;-38
2022/10/20 19:08:19;;;;;;;8.07;4.63;;;14.70;99.90;;;;;;20690757;28;20045;-38
2022/10/20 19:18:21;;;;;;;11.65;4.43;;;14.70;99.90;;;;;;20687377;28;20046;-38
2022/10/20 19:28:22;;;;;;;7.75;3.83;;;14.60;99.90;;;;;;20666629;28;20156;-39
2022/10/20 19:38:23;;;;;;;7.05;4.15;;;14.60;99.90;;;;;;20720047;28;20042;-38
2022/10/20 19:48:24;;;;;;;7.75;4.68;;;14.70;99.90;;;;;;20696674;28;20042;-38
2022/10/20 19:58:25;;;;;;;6.95;4.30;;;14.60;99.90;;;;;;20705118;28;20045;-38
2022/10/20 20:08:26;;;;;;;8.13;3.78;;;14.60;99.90;;;;;;20693573;28;20046;-38
2022/10/20 20:18:27;;;;;;;8.63;3.60;;;14.60;99.90;;;;;;20701038;28;20081;-38
2022/10/20 20:28:28;;;;;;;8.32;4.60;;;14.60;99.90;;;;;;20702109;28;20049;-39
2022/10/20 20:38:31;;;;;;;6.78;3.17;;;14.60;99.90;;;;;;20703868;28;20086;-38
2022/10/20 20:48:34;;;;;;;6.53;3.15;;;14.60;99.90;;;;;;20706058;28;20756;-38
2022/10/20 20:58:36;;;;;;;7.07;3.35;;;14.50;99.90;;;;;;20699576;28;20050;-38
2022/10/20 21:08:39;;;;;;;9.48;4.00;;;14.40;99.90;;;;;;20697848;28;20131;-38
2022/10/20 21:18:43;;;;;;;8.73;3.60;;;14.40;99.90;;;;;;20692116;28;20503;-38
2022/10/20 21:28:45;;;;;;;6.50;3.20;;;14.40;99.90;;;;;;20692420;28;20184;-38
2022/10/20 21:38:47;;;;;;;5.72;3.88;;;14.20;99.90;;;;;;20690158;28;20092;-38
2022/10/20 21:48:50;;;;;;;7.13;4.18;;;14.20;99.90;;;;;;20710689;28;20072;-38
2022/10/20 21:58:52;;;;;;;8.80;3.38;;;14.20;99.90;;;;;;20693973;28;20073;-38
2022/10/20 22:08:55;;;;;;;18.85;4.20;;;14.10;99.90;;;;;;20699487;28;20528;-38
2022/10/20 22:18:59;;;;;;;9.18;4.68;;;14.10;99.90;;;;;;20699440;28;20088;-38
2022/10/20 22:29:01;;;;;;;6.68;3.38;;;14.00;99.90;;;;;;20701696;28;20054;-38
2022/10/20 22:39:04;;;;;;;11.55;5.05;;;14.00;99.90;;;;;;20706691;28;20049;-38
2022/10/20 22:49:05;;;;;;;6.18;3.80;;;13.90;99.90;;;;;;20689293;28;20049;-38
2022/10/20 22:59:06;;;;;;;16.17;4.32;;;13.90;99.90;;;;;;20695236;28;20057;-38
2022/10/20 23:09:07;;;;;;;5.90;3.65;;;13.90;99.90;;;;;;20673335;28;20502;-38
2022/10/20 23:19:08;;;;;;;7.93;4.15;;;13.80;99.90;;;;;;20686119;28;20568;-38
2022/10/20 23:29:09;;;;;;;6.13;3.03;;;13.90;99.90;;;;;;20673678;28;20386;-38
2022/10/20 23:39:10;;;;;;;7.65;3.42;;;13.90;99.90;;;;;;20693086;28;20631;-38
2022/10/20 23:49:11;;;;;;;8.30;4.15;;;13.90;99.90;;;;;;20686353;28;20139;-38
2022/10/20 23:59:12;;;;;;;10.55;5.22;;;13.80;99.90;;;;;;20690471;28;20517;-38
